Página principal
METAR-TAF:

METAR-TAF

Aeroportos :

Pohnpei, Micronésia

latitude: 06-59N, longitude: 158-12E, altura: 2 m

Observação actual do tempo

O boletim foi feito há 26 minutos, às 22:51 UTC
Vento 5 kt de oeste
Temperatura 29°C
Humidade 74%
Pressão 1010 hPa
Visibilidade: 24.1 km
Nuvens dispersasa uma altura de 1800 ft
Nuvens fragmentadasa uma altura de 13000 ft
Encobertoa uma altura de 30000 ft

METAR: PTPN 162251Z 28005KT 15SM SCT018 BKN130 OVC300 29/24 A2982

Hora: 10:17 (23:17 UTC)

Previsão

O boletim foi feito há 1 hora e 8 minutos, às 22:09 UTC
Previsão válida de 16 às 22 UTC a 17 às 18 UTC
Vento 10 kt de nor-noroeste
Visibilidade: 10 km
Nuvens dispersasa uma altura de 1800 ft
Nuvens fragmentadasa uma altura de 13000 ft
aguaceiros nas vizinhanças

TAF: PTPN 162209Z 1622/1718 33010KT P6SM VCSH SCT018 BKN130

Observações e previsões do tempo de mais de 4000 aeroportos (mensagens METAR e TAF).

As estações disponíveis são os pontos amarelos e vermelhos sobre o mapa.

Mova o rato sobre o mapa para ver o nome da estação.

Depois clique no ponto para visualizar as observações e previsões meteorológicas.

Para alterar o mapa : clique nos botões verdes com uma cruz preta para aumentar o zoom; no botão verde com uma pitada de zoom; ou nas setas verdes para mapas adjacentes.


METAR-TAF: